createdAt,value
2019-05-15T00:02:04.153Z,1.30
2019-05-15T00:04:34.886Z,1.13
2019-05-15T00:07:05.672Z,1.43
2019-05-15T00:09:39.261Z,1.20
2019-05-15T00:12:08.895Z,1.07
2019-05-15T00:14:39.711Z,1.10
2019-05-15T00:17:10.528Z,1.37
2019-05-15T00:19:41.284Z,1.20
2019-05-15T00:22:12.060Z,1.20
2019-05-15T00:24:42.857Z,1.20
2019-05-15T00:27:13.663Z,1.20
2019-05-15T00:29:44.420Z,1.10
2019-05-15T00:32:15.206Z,1.30
2019-05-15T00:34:46.002Z,1.10
2019-05-15T00:37:18.218Z,1.07
2019-05-15T00:39:49.054Z,1.33
2019-05-15T00:42:19.891Z,1.20
2019-05-15T00:44:50.687Z,1.20
2019-05-15T00:47:21.451Z,1.20
2019-05-15T00:49:52.219Z,1.00
2019-05-15T00:52:23.040Z,1.67
2019-05-15T00:54:53.805Z,1.40
2019-05-15T00:57:24.587Z,1.30
2019-05-15T00:59:55.374Z,1.27
2019-05-15T01:02:28.532Z,1.30
2019-05-15T01:04:58.635Z,1.20
2019-05-15T01:07:29.564Z,1.50
2019-05-15T01:10:00.231Z,1.40
2019-05-15T01:12:31.013Z,1.43
2019-05-15T01:15:01.753Z,1.30
2019-05-15T01:17:32.478Z,1.60
2019-05-15T01:20:03.226Z,1.30
2019-05-15T01:22:33.983Z,1.40
2019-05-15T01:25:04.778Z,1.50
2019-05-15T01:27:35.620Z,1.27
2019-05-15T01:30:08.821Z,1.40
2019-05-15T01:32:39.710Z,1.63
2019-05-15T01:35:10.715Z,1.50
2019-05-15T01:37:41.491Z,1.43
2019-05-15T01:40:12.447Z,1.63
2019-05-15T01:42:43.203Z,1.53
2019-05-15T01:45:13.959Z,1.30
2019-05-15T01:47:44.744Z,1.30
2019-05-15T01:50:15.612Z,1.43
2019-05-15T01:52:47.952Z,1.77
2019-05-15T01:55:18.826Z,1.50
2019-05-15T01:57:49.601Z,1.60
2019-05-15T02:00:20.768Z,1.40
2019-05-15T02:02:51.482Z,1.80
2019-05-15T02:05:22.361Z,1.67
2019-05-15T02:07:53.147Z,1.80
2019-05-15T02:10:23.972Z,1.47
2019-05-15T02:12:54.778Z,1.70
2019-05-15T02:15:25.884Z,1.70
2019-05-15T02:17:58.674Z,1.67
2019-05-15T02:20:29.255Z,1.80
2019-05-15T02:23:00.050Z,1.50
2019-05-15T02:25:30.759Z,1.70
2019-05-15T02:28:01.582Z,1.60
2019-05-15T02:30:34.016Z,1.47
2019-05-15T02:33:05.028Z,1.63
2019-05-15T02:35:38.864Z,1.70
2019-05-15T02:38:10.253Z,1.70
2019-05-15T02:40:41.128Z,2.17
2019-05-15T02:43:12.036Z,1.50
2019-05-15T02:45:42.803Z,1.70
2019-05-15T02:48:13.600Z,1.60
2019-05-15T02:50:44.364Z,1.50
2019-05-15T02:53:15.102Z,1.60
2019-05-15T02:55:49.193Z,1.73
2019-05-15T02:58:21.177Z,1.60
2019-05-15T03:00:53.465Z,2.10
2019-05-15T03:03:23.118Z,1.67
2019-05-15T03:05:53.884Z,1.50
2019-05-15T03:08:24.700Z,1.67
2019-05-15T03:10:58.946Z,1.90
2019-05-15T03:13:29.894Z,1.80
2019-05-15T03:16:00.370Z,1.70
2019-05-15T03:18:31.146Z,1.80
2019-05-15T03:21:01.936Z,1.60
2019-05-15T03:23:32.667Z,1.73
2019-05-15T03:26:04.547Z,2.00
2019-05-15T03:28:38.309Z,2.00
2019-05-15T03:31:26.507Z,2.00
2019-05-15T03:33:45.798Z,1.87
2019-05-15T03:36:14.024Z,1.80
2019-05-15T03:38:45.030Z,1.70
2019-05-15T03:41:19.171Z,1.50
2019-05-15T03:43:49.697Z,1.80
2019-05-15T03:46:20.716Z,2.10
2019-05-15T03:48:51.402Z,1.70
2019-05-15T03:51:22.201Z,1.97
2019-05-15T03:53:52.977Z,1.93
2019-05-15T03:56:23.826Z,2.30
2019-05-15T03:58:54.605Z,2.07
2019-05-15T04:01:34.120Z,1.90
2019-05-15T04:03:59.791Z,2.00
2019-05-15T04:06:30.126Z,1.90
2019-05-15T04:09:00.955Z,1.80
2019-05-15T04:11:31.783Z,1.90
2019-05-15T04:14:02.689Z,2.00
2019-05-15T04:16:33.634Z,2.07
2019-05-15T04:19:04.400Z,1.80
2019-05-15T04:21:35.147Z,2.07
2019-05-15T04:24:05.992Z,1.73
2019-05-15T04:26:39.469Z,2.00
2019-05-15T04:29:10.402Z,1.80
2019-05-15T04:31:51.712Z,2.17
2019-05-15T04:34:13.563Z,2.43
2019-05-15T04:36:44.833Z,2.30
2019-05-15T04:39:19.048Z,2.37
2019-05-15T04:41:50.023Z,2.40
2019-05-15T04:44:20.564Z,1.90
2019-05-15T04:46:51.331Z,1.70
2019-05-15T04:49:22.087Z,1.90
2019-05-15T04:51:52.844Z,1.87
2019-05-15T04:54:23.631Z,1.87
2019-05-15T04:56:54.425Z,1.60
2019-05-15T04:59:25.182Z,2.20
2019-05-15T05:02:13.000Z,2.00
2019-05-15T05:04:29.572Z,1.97
2019-05-15T05:07:00.716Z,1.90
2019-05-15T05:09:31.546Z,2.00
2019-05-15T05:12:02.323Z,2.10
2019-05-15T05:14:33.130Z,1.77
2019-05-15T05:17:03.867Z,1.40
2019-05-15T05:19:34.792Z,1.90
2019-05-15T05:22:07.728Z,1.60
2019-05-15T05:24:38.532Z,1.47
2019-05-15T05:27:09.423Z,1.90
2019-05-15T05:29:40.177Z,2.20
2019-05-15T05:32:10.973Z,1.17
2019-05-15T05:34:41.709Z,1.57
2019-05-15T05:37:12.467Z,1.30
2019-05-15T05:39:43.232Z,1.40
2019-05-15T05:42:14.039Z,1.30
2019-05-15T05:44:44.846Z,1.60
2019-05-15T05:47:15.582Z,1.70
2019-05-15T05:49:48.635Z,1.60
2019-05-15T05:52:18.797Z,1.47
2019-05-15T05:54:49.540Z,1.30
2019-05-15T05:57:20.187Z,1.43
2019-05-15T05:59:50.934Z,1.20
2019-05-15T06:02:21.650Z,1.50
2019-05-15T06:04:52.485Z,1.30
2019-05-15T06:07:23.287Z,1.30
2019-05-15T06:09:54.060Z,1.13
2019-05-15T06:12:24.805Z,1.30
2019-05-15T06:14:57.950Z,1.43
2019-05-15T06:17:28.155Z,1.20
2019-05-15T06:19:58.934Z,1.40
2019-05-15T06:22:29.711Z,1.30
2019-05-15T06:25:04.586Z,1.30
2019-05-15T06:27:32.893Z,1.40
2019-05-15T06:30:04.240Z,1.07
2019-05-15T06:32:34.986Z,1.40
2019-05-15T06:35:05.802Z,1.50
2019-05-15T06:37:39.648Z,1.00
2019-05-15T06:40:29.260Z,1.30
2019-05-15T06:43:00.016Z,1.30
2019-05-15T06:45:30.810Z,1.30
2019-05-15T06:48:01.657Z,1.30
2019-05-15T06:50:38.212Z,1.10
2019-05-15T06:53:10.849Z,1.30
2019-05-15T06:55:41.899Z,1.17
2019-05-15T06:58:12.676Z,1.20
2019-05-15T07:00:43.432Z,1.47
2019-05-15T07:03:21.647Z,1.50
2019-05-15T07:05:46.596Z,1.30
2019-05-15T07:08:18.134Z,1.00
2019-05-15T07:10:49.149Z,1.33
2019-05-15T07:13:19.994Z,2.00
2019-05-15T07:15:50.822Z,1.47
2019-05-15T07:18:21.578Z,1.17
2019-05-15T07:20:52.322Z,1.20
2019-05-15T07:23:26.731Z,1.40
2019-05-15T07:25:55.478Z,1.13
2019-05-15T07:28:28.685Z,1.30
2019-05-15T07:30:58.892Z,1.30
2019-05-15T07:33:39.644Z,1.20
2019-05-15T07:36:03.023Z,1.10
2019-05-15T07:38:33.749Z,1.10
2019-05-15T07:41:04.717Z,1.20
2019-05-15T07:43:35.422Z,1.20
2019-05-15T07:46:08.436Z,1.53
2019-05-15T07:48:38.671Z,1.20
2019-05-15T07:51:11.536Z,1.40
2019-05-15T07:53:41.778Z,1.40
2019-05-15T07:56:12.687Z,1.40
2019-05-15T07:58:43.451Z,1.43
2019-05-15T08:01:14.241Z,1.43
2019-05-15T08:03:56.658Z,1.30
2019-05-15T08:06:18.011Z,1.30
2019-05-15T08:08:48.913Z,1.73
2019-05-15T08:11:23.968Z,1.20
2019-05-15T08:13:52.131Z,1.30
2019-05-15T08:16:22.977Z,0.90
2019-05-15T08:18:53.681Z,1.10
2019-05-15T08:21:24.482Z,1.20
2019-05-15T08:23:55.237Z,1.10
2019-05-15T08:26:28.179Z,1.20
2019-05-15T08:28:58.340Z,1.13
2019-05-15T08:31:29.033Z,1.00
2019-05-15T08:34:12.651Z,1.17
2019-05-15T08:36:32.169Z,1.30
2019-05-15T08:39:04.211Z,0.90
2019-05-15T08:41:34.951Z,1.30
2019-05-15T08:44:05.810Z,0.93
2019-05-15T08:46:38.560Z,0.97
2019-05-15T08:49:09.299Z,1.23
2019-05-15T08:51:48.723Z,1.10
2019-05-15T08:54:19.593Z,1.30
2019-05-15T08:56:50.383Z,1.20
2019-05-15T08:59:21.139Z,1.23
2019-05-15T09:01:51.866Z,1.30
2019-05-15T09:04:30.801Z,1.17
2019-05-15T09:06:55.087Z,1.40
2019-05-15T09:09:25.947Z,1.30
2019-05-15T09:11:58.511Z,1.30
2019-05-15T09:14:29.158Z,1.10
2019-05-15T09:16:59.944Z,1.00
2019-05-15T09:19:30.711Z,1.43
2019-05-15T09:22:01.517Z,1.20
2019-05-15T09:24:32.285Z,1.10
2019-05-15T09:27:03.119Z,1.00
2019-05-15T09:29:33.912Z,1.40
2019-05-15T09:32:04.692Z,1.47
2019-05-15T09:34:48.021Z,1.20
2019-05-15T09:37:08.615Z,1.40
2019-05-15T09:39:39.452Z,1.37
2019-05-15T09:42:10.284Z,1.50
2019-05-15T09:44:41.004Z,1.20
2019-05-15T09:47:11.810Z,1.30
2019-05-15T09:49:42.586Z,1.27
2019-05-15T09:52:13.353Z,1.23
2019-05-15T09:54:44.739Z,1.03
2019-05-15T09:57:15.515Z,1.07
2019-05-15T09:59:48.679Z,1.27
2019-05-15T10:02:20.048Z,1.13
2019-05-15T10:05:05.517Z,1.20
2019-05-15T10:07:23.204Z,1.27
2019-05-15T10:09:54.020Z,1.30
2019-05-15T10:12:24.805Z,1.40
2019-05-15T10:14:55.610Z,2.03
2019-05-15T10:17:28.946Z,1.20
2019-05-15T10:19:58.803Z,1.30
2019-05-15T10:22:29.559Z,1.33
2019-05-15T10:25:00.355Z,1.20
2019-05-15T10:27:31.092Z,1.33
2019-05-15T10:30:01.886Z,1.47
2019-05-15T10:32:32.615Z,1.30
2019-05-15T10:35:03.441Z,1.30
2019-05-15T10:37:34.207Z,1.40
2019-05-15T10:40:06.129Z,1.23
2019-05-15T10:42:39.489Z,1.20
2019-05-15T10:45:09.863Z,1.13
2019-05-15T10:47:40.592Z,1.03
2019-05-15T10:50:11.857Z,1.33
2019-05-15T10:52:42.655Z,1.00
2019-05-15T10:55:13.984Z,1.20
2019-05-15T10:57:44.968Z,1.20
2019-05-15T11:00:19.498Z,1.20
2019-05-15T11:03:08.983Z,1.20
2019-05-15T11:05:45.285Z,1.07
2019-05-15T11:08:12.191Z,1.27
2019-05-15T11:10:43.434Z,1.07
2019-05-15T11:13:14.280Z,1.00
2019-05-15T11:15:45.047Z,1.07
2019-05-15T11:18:15.793Z,1.27
2019-05-15T11:20:48.783Z,1.00
2019-05-15T11:23:20.047Z,1.17
2019-05-15T11:25:51.164Z,1.00
2019-05-15T11:28:21.970Z,1.17
2019-05-15T11:30:52.805Z,1.20
2019-05-15T11:33:23.612Z,1.20
2019-05-15T11:36:05.018Z,1.10
2019-05-15T11:38:28.946Z,1.07
2019-05-15T11:40:59.600Z,1.10
2019-05-15T11:43:30.357Z,1.30
2019-05-15T11:46:01.174Z,1.03
2019-05-15T11:48:32.280Z,1.00
2019-05-15T11:51:03.105Z,1.20
2019-05-15T11:53:33.901Z,1.07
2019-05-15T11:56:04.657Z,1.30
2019-05-15T11:58:35.417Z,1.30
2019-05-15T12:01:08.491Z,1.33
2019-05-15T12:03:38.913Z,1.50
2019-05-15T12:06:18.036Z,1.37
2019-05-15T12:08:42.145Z,1.53
2019-05-15T12:11:30.835Z,1.20
2019-05-15T12:13:45.311Z,1.30
2019-05-15T12:16:16.110Z,1.50
2019-05-15T12:18:48.366Z,1.30
2019-05-15T12:21:20.032Z,1.50
2019-05-15T12:23:51.084Z,1.37
2019-05-15T12:26:21.946Z,1.40
2019-05-15T12:28:52.560Z,1.20
2019-05-15T12:31:24.723Z,1.30
2019-05-15T12:33:57.679Z,1.20
2019-05-15T12:36:50.060Z,1.37
2019-05-15T12:39:09.012Z,1.23
2019-05-15T13:01:52.266Z,1.37
2019-05-15T13:04:22.982Z,1.13
2019-05-15T13:07:10.438Z,1.37
2019-05-15T13:09:27.740Z,1.20
2019-05-15T13:11:58.671Z,1.10
2019-05-15T13:14:29.451Z,1.40
2019-05-15T13:17:00.229Z,1.20
2019-05-15T13:19:30.979Z,1.33
2019-05-15T13:22:01.785Z,1.30
2019-05-15T13:24:32.562Z,1.20
2019-05-15T13:27:03.338Z,1.50
2019-05-15T13:29:34.094Z,1.00
2019-05-15T13:32:04.974Z,1.17
2019-05-15T13:34:35.746Z,1.03
2019-05-15T13:37:08.836Z,1.00
2019-05-15T13:39:39.234Z,1.20
2019-05-15T13:42:10.179Z,1.17
2019-05-15T13:44:40.952Z,1.43
2019-05-15T13:47:11.759Z,1.10
2019-05-15T13:49:42.564Z,1.27
2019-05-15T13:52:13.390Z,0.90
2019-05-15T13:54:44.146Z,1.03
2019-05-15T13:57:17.945Z,1.00
2019-05-15T13:59:48.484Z,1.10
2019-05-15T14:02:19.397Z,1.10
2019-05-15T14:04:50.191Z,1.00
2019-05-15T14:07:21.008Z,1.20
2019-05-15T14:09:51.754Z,1.17
2019-05-15T14:12:22.560Z,1.10
2019-05-15T14:14:53.356Z,1.30
2019-05-15T14:17:24.153Z,1.57
2019-05-15T14:19:54.919Z,1.23
2019-05-15T14:22:25.695Z,1.20
2019-05-15T14:24:58.416Z,1.30
2019-05-15T14:27:29.348Z,1.30
2019-05-15T14:30:00.774Z,1.20
2019-05-15T14:32:37.694Z,1.10
2019-05-15T14:35:04.179Z,1.30
2019-05-15T14:37:35.004Z,1.20
2019-05-15T14:40:08.152Z,1.10
2019-05-15T14:42:39.785Z,1.40
2019-05-15T14:45:11.224Z,1.20
2019-05-15T14:47:42.041Z,1.17
2019-05-15T14:50:12.985Z,1.00
2019-05-15T14:52:43.762Z,1.10
2019-05-15T14:55:14.631Z,0.93
2019-05-15T14:57:45.528Z,1.17
2019-05-15T15:00:19.979Z,1.47
2019-05-15T15:02:49.590Z,1.10
2019-05-15T15:05:22.673Z,1.00
2019-05-15T15:07:52.968Z,1.40
2019-05-15T15:10:23.795Z,1.30
2019-05-15T15:12:54.512Z,1.10
2019-05-15T15:15:25.337Z,1.00
2019-05-15T15:17:58.155Z,1.10
2019-05-15T15:20:28.691Z,1.30
2019-05-15T15:22:59.497Z,1.20
2019-05-15T15:25:30.304Z,1.30
2019-05-15T15:28:01.118Z,1.20
2019-05-15T15:30:31.936Z,1.10
2019-05-15T15:33:02.912Z,1.40
2019-05-15T15:35:33.697Z,1.50
2019-05-15T15:38:04.437Z,1.10
2019-05-15T15:40:35.201Z,1.10
2019-05-15T15:43:08.592Z,1.33
2019-05-15T15:45:39.128Z,1.30
2019-05-15T15:48:10.039Z,1.20
2019-05-15T15:50:40.826Z,1.20
2019-05-15T15:53:11.618Z,1.37
2019-05-15T15:55:42.439Z,1.30
2019-05-15T15:58:13.206Z,0.90
2019-05-15T16:00:44.162Z,1.07
2019-05-15T16:03:14.896Z,1.00
2019-05-15T16:05:45.714Z,1.13
2019-05-15T16:08:18.914Z,0.90
2019-05-15T16:10:48.896Z,1.20
2019-05-15T16:13:19.960Z,1.10
2019-05-15T16:15:50.738Z,1.30
2019-05-15T16:18:21.524Z,1.07
2019-05-15T16:20:52.313Z,1.10
2019-05-15T16:23:23.050Z,1.10
2019-05-15T16:25:53.784Z,0.90
2019-05-15T16:28:24.480Z,1.10
2019-05-15T16:30:55.257Z,1.20
2019-05-15T16:33:28.214Z,1.03
2019-05-15T16:35:58.630Z,1.10
2019-05-15T16:38:29.416Z,1.00
2019-05-15T16:41:00.283Z,0.90
2019-05-15T16:43:31.049Z,1.00
2019-05-15T16:46:01.854Z,0.80
2019-05-15T16:48:32.561Z,1.10
2019-05-15T16:51:03.355Z,1.33
2019-05-15T16:53:34.094Z,0.93
2019-05-15T16:56:04.819Z,0.70
2019-05-15T16:58:35.605Z,0.70
2019-05-15T17:01:06.422Z,0.70
2019-05-15T17:03:38.027Z,0.87
2019-05-15T17:06:09.450Z,0.77
2019-05-15T17:08:40.592Z,0.90
2019-05-15T17:11:11.418Z,1.10
2019-05-15T17:13:42.205Z,1.37
2019-05-15T17:16:13.039Z,0.93
2019-05-15T17:18:43.839Z,1.43
2019-05-15T17:21:14.647Z,0.90
2019-05-15T17:23:45.378Z,0.77
2019-05-15T17:26:16.166Z,1.47
2019-05-15T17:28:46.943Z,1.07
2019-05-15T17:31:18.223Z,0.77
2019-05-15T17:33:49.103Z,2.00
2019-05-15T17:36:20.181Z,2.10
2019-05-15T17:38:50.958Z,1.27
2019-05-15T17:41:21.762Z,1.40
2019-05-15T17:43:52.508Z,1.20
2019-05-15T17:46:23.325Z,1.20
2019-05-15T17:48:56.797Z,1.03
2019-05-15T17:51:27.735Z,0.87
2019-05-15T17:53:58.487Z,0.83
2019-05-15T17:56:29.697Z,0.80
2019-05-15T17:59:00.548Z,0.70
2019-05-15T18:01:31.437Z,1.00
2019-05-15T18:04:02.304Z,0.90
2019-05-15T18:06:33.099Z,0.73
2019-05-15T18:09:05.083Z,1.23
2019-05-15T18:11:38.188Z,0.90
2019-05-15T18:14:08.920Z,0.80
2019-05-15T18:16:39.883Z,0.80
2019-05-15T18:19:10.629Z,0.80
2019-05-15T18:21:41.447Z,1.30
2019-05-15T18:24:12.302Z,1.00
2019-05-15T18:26:43.098Z,0.73
2019-05-15T18:29:13.924Z,0.90
2019-05-15T18:31:45.140Z,0.90
2019-05-15T18:34:15.916Z,0.80
2019-05-15T18:36:48.461Z,0.60
2019-05-15T18:39:19.220Z,0.73
2019-05-15T18:41:49.986Z,0.80
2019-05-15T18:44:20.836Z,1.00
2019-05-15T18:46:51.742Z,0.90
2019-05-15T18:49:22.549Z,0.70
2019-05-15T18:51:53.338Z,0.63
2019-05-15T18:54:24.187Z,0.90
2019-05-15T18:56:55.013Z,0.67
2019-05-15T18:59:25.809Z,0.90
2019-05-15T19:01:58.504Z,0.80
2019-05-15T19:04:29.004Z,0.90
2019-05-15T19:06:59.754Z,0.77
2019-05-15T19:09:30.566Z,0.70
2019-05-15T19:12:01.362Z,0.80
2019-05-15T19:14:32.447Z,1.00
2019-05-15T19:17:03.237Z,0.60
2019-05-15T19:19:34.060Z,0.83
2019-05-15T19:22:04.921Z,0.90
2019-05-15T19:24:39.892Z,1.07
2019-05-15T19:27:08.111Z,0.90
2019-05-15T19:29:38.926Z,1.10
2019-05-15T19:32:11.105Z,0.87
2019-05-15T19:34:42.048Z,1.30
2019-05-15T19:37:12.807Z,1.23
2019-05-15T19:39:43.652Z,0.97
2019-05-15T19:42:14.419Z,1.10
2019-05-15T19:44:45.223Z,1.07
2019-05-15T19:47:18.392Z,0.93
2019-05-15T19:49:48.488Z,1.10
2019-05-15T19:52:19.211Z,1.10
2019-05-15T19:54:50.010Z,0.83
2019-05-15T19:57:21.046Z,0.90
2019-05-15T19:59:51.831Z,1.00
2019-05-15T20:02:22.629Z,0.93
2019-05-15T20:04:53.437Z,1.20
2019-05-15T20:07:24.200Z,1.13
2019-05-15T20:09:55.017Z,1.10
2019-05-15T20:12:27.948Z,1.07
2019-05-15T20:14:58.489Z,1.23
2019-05-15T20:17:29.281Z,1.20
2019-05-15T20:20:00.255Z,1.23
2019-05-15T20:22:30.989Z,1.17
2019-05-15T20:25:01.816Z,1.00
2019-05-15T20:27:32.542Z,0.90
2019-05-15T20:30:03.358Z,1.20
2019-05-15T20:32:34.134Z,1.00
2019-05-15T20:35:05.379Z,1.10
2019-05-15T20:37:38.887Z,1.03
2019-05-15T20:40:09.505Z,1.30
2019-05-15T20:42:40.260Z,1.27
2019-05-15T20:45:12.383Z,0.90
2019-05-15T20:47:43.498Z,1.17
2019-05-15T20:50:14.749Z,1.10
2019-05-15T20:52:48.520Z,1.20
2019-05-15T20:55:17.933Z,1.00
2019-05-15T20:57:50.493Z,1.20
2019-05-15T21:00:21.684Z,1.00
2019-05-15T21:02:52.420Z,0.90
2019-05-15T21:05:23.219Z,0.90
2019-05-15T21:07:53.985Z,1.17
2019-05-15T21:10:24.912Z,0.90
2019-05-15T21:12:55.629Z,1.17
2019-05-15T21:15:26.794Z,0.93
2019-05-15T21:18:07.933Z,1.20
2019-05-15T21:20:29.992Z,1.40
2019-05-15T21:23:01.374Z,0.90
2019-05-15T21:25:32.443Z,1.00
2019-05-15T21:28:03.165Z,1.10
2019-05-15T21:30:33.981Z,1.10
2019-05-15T21:33:04.687Z,1.20
2019-05-15T21:35:35.523Z,1.60
2019-05-15T21:38:06.239Z,0.87
2019-05-15T21:40:38.594Z,1.40
2019-05-15T21:43:09.504Z,1.00
2019-05-15T21:45:40.268Z,1.53
2019-05-15T21:48:11.005Z,1.30
2019-05-15T21:50:41.830Z,1.10
2019-05-15T21:53:12.949Z,1.20
2019-05-15T21:55:43.700Z,1.20
2019-05-15T21:58:14.490Z,1.47
2019-05-15T22:00:48.560Z,1.40
2019-05-15T22:03:19.883Z,1.10
2019-05-15T22:05:50.685Z,1.00
2019-05-15T22:08:21.527Z,1.20
2019-05-15T22:10:52.461Z,1.07
2019-05-15T22:13:23.339Z,0.90
2019-05-15T22:16:08.015Z,1.30
2019-05-15T22:18:38.536Z,1.23
2019-05-15T22:21:09.390Z,1.10
2019-05-15T22:23:40.147Z,1.23
2019-05-15T22:26:10.939Z,1.40
2019-05-15T22:28:41.758Z,1.10
2019-05-15T22:31:12.480Z,1.37
2019-05-15T22:33:43.282Z,1.20
2019-05-15T22:36:14.028Z,1.27
2019-05-15T22:38:44.832Z,1.50
2019-05-15T22:41:15.599Z,1.20
2019-05-15T22:43:48.443Z,1.27
2019-05-15T22:46:18.795Z,1.20
2019-05-15T22:48:49.630Z,1.33
2019-05-15T22:51:20.405Z,1.23
2019-05-15T22:53:51.164Z,1.30
2019-05-15T22:56:21.898Z,1.20
2019-05-15T22:58:52.664Z,1.20
2019-05-15T23:01:23.442Z,1.33
2019-05-15T23:03:54.216Z,1.20
2019-05-15T23:06:24.973Z,1.30
2019-05-15T23:08:57.951Z,1.20
2019-05-15T23:11:29.964Z,1.40
2019-05-15T23:14:00.542Z,1.10
2019-05-15T23:16:31.319Z,1.10
2019-05-15T23:19:02.725Z,1.20
2019-05-15T23:21:33.522Z,1.10
2019-05-15T23:24:04.248Z,1.13
2019-05-15T23:26:34.935Z,1.27
2019-05-15T23:29:07.813Z,1.30
2019-05-15T23:31:37.969Z,1.13
2019-05-15T23:34:08.696Z,1.20
2019-05-15T23:36:39.430Z,1.37
2019-05-15T23:39:10.166Z,1.13
2019-05-15T23:41:40.822Z,1.23
2019-05-15T23:44:11.604Z,1.43
2019-05-15T23:46:42.326Z,1.30
2019-05-15T23:49:13.013Z,1.17
2019-05-15T23:51:43.757Z,1.00
2019-05-15T23:54:14.526Z,1.10
2019-05-15T23:56:45.271Z,1.20
2019-05-15T23:59:15.998Z,1.03
